Reno Tahoe International Airport
KRNO : rendu visible

Aérodrome :











RETROUVEZ-NOUS SUR...

 
LOGIN :

S'inscrire | Disclaimer

   EN    FR    IT 

 









Légende :    VFR   VFR Marginal   IFR   IFR Intensif   IFR Très Intensif
Visi : 
Plafond : 
>= 8 km
>= 3000ft
5 à 8 km
1000 à 3000 ft
1500m à 5 km
500 à 1000 ft
800 à 1500m
200 à 500 ft
< 800m
< 200 ft
Symboles :   Orages  Brouillard  Fortes neiges  Fortes précipitations  Vent > 20 kt






- Altitude de l'aérodrome : 4415 ft
- Code IATA : RNO


KRNO - Reno Tahoe International

DERNIER METAR :
  • 080955Z 00000KT 10SM SCT075 SCT095 04/01 A3004 RMK AO2 SLP157 T00440006

METARs EXPIRÉS :
  • 080855Z 00000KT 10SM SCT095 05/00 A3004 RMK AO2 SLP158 T00500000 58007
  • 080755Z 00000KT 10SM FEW065 BKN095 06/00 A3006 RMK AO2 SLP166 T00610000 401330022

TAF KRNO
Valide du 08 à 06h jusqu'au 09 à 06h UTC


080524Z 0806/0906 06006KT P6SM SCT070
FM080800 VRB04KT P6SM SCT080 BKN150
FM081600 12011G18KT P6SM SCT070 BKN150
FM090400 VRB04KT P6SM SCT070 SCT150 BKN200



MET'MAP, la Météo Aéronautique d'un coup d'oeil ! - Copyright ORBIFLY Décembre 2007 - Disclaimer

ORBIFLY MET'MAP TEAM :

Programmation & Développement : Alexandra Zaïnal
Sur une idée originale de : Baudouin d'Aumeries
Assistance à la programmation : Marc-Olivier Méhu
Soutien technique & logistique : Manuel Goepfert

Contact : metmap@orbifly.com




SOURCES & CREDITS :

   NOAA       Earth
Advisory